Aérodrome :
LOGIN :

S'inscrire | Disclaimer

   EN    FR    IT 

 










Légende :    VFR   VFR Marginal   IFR   IFR Intensif   IFR Très Intensif
Visi : 
Plafond : 
>= 8 km
>= 3000ft
5 à 8 km
1000 à 3000 ft
1500m à 5 km
500 à 1000 ft
800 à 1500m
200 à 500 ft
< 800m
< 200 ft
Symboles :   Orages  Brouillard  Fortes neiges  Fortes précipitations  Vent > 20 kt
SIGMETs :   Divers  Orages  Givrage  Turbulence  Onde Orograph.  Cendres Volcan.






- Altitude de l'aérodrome : 1585 ft
- Code IATA : SIR


LSGS - Sion

DERNIER METAR :
  • 200850Z 08005KT CAVOK M04/M10 Q1039

METARs EXPIRÉS :
  • 200820Z 07004KT CAVOK M04/M10 Q1039
  • 200750Z 05004KT CAVOK M04/M10 Q1039
  • 200720Z 06005KT 340V100 CAVOK M04/M10 Q1039
  • 200650Z 09005KT CAVOK M05/M10 Q1038
  • 200620Z 06005KT CAVOK M05/M10 Q1038

TAF TAF LSGS
Valide du 20 à 09h jusqu'au 20 à 18h UTC


200825Z 2009/2018 09005KT CAVOK



MET'MAP, la Météo Aéronautique d'un coup d'oeil ! - Copyright ORBIFLY Décembre 2007 - Disclaimer

ORBIFLY MET'MAP TEAM :

Programmation & Développement : Alexandra Zaïnal
Sur une idée originale de : Baudouin d'Aumeries
Assistance à la programmation : Marc-Olivier Méhu
Soutien technique & logistique : Manuel Goepfert

Contact : metmap@orbifly.com




SOURCES & CREDITS :

   NOAA